• Join FlightAware (Why Join?)
  • Login
  • US Flag 
04:55AM EDT


 

Airport Tracker/Info


-or-


 

Live Flight TrackerFlight Track Log ✈ UCA597 ✈ 16-Mar-2014 ✈ KIAD - KBGM

Flight Track Log - Related Links

Times and Time Zones

All times are in EDT time to prevent confusion due to time zone crossing. See the UCA597 flight status page for this flight to view local times or setup timezone preferences in your user account.

Time Position Orientation Groundspeed Altitude Reporting Facility
EDT Latitude Longitude Course Direction KTS MPH feet Rate Location/Type
05:46PM 38.9833 -77.4333 North 156 180 2,500  Level Potomac TRACON
05:47PM 39.0333 -77.4500 345° North 175 201 4,100 1,380 Climbing Potomac TRACON
05:49PM 39.0833 -77.4500 360° North 191 220 5,500 1,380 Climbing Potomac TRACON
05:50PM 39.1500 -77.4500 360° North 201 231 7,100 1,500 Climbing Potomac TRACON
05:51PM 39.2000 -77.4500 360° North 203 234 8,600 1,560 Climbing Potomac TRACON
05:52PM 39.3671 -77.4500 North  Level FlightAware Approximate
05:52PM 39.2500 -77.4500 360° North 204 235 10,100  Level Potomac TRACON
05:54PM 39.3844 -77.4578 357° North 212 244 13,000 1,320 Climbing Washington Center
05:55PM 39.4367 -77.4564 North 212 244 14,700 1,440 Climbing Washington Center
05:56PM 39.4972 -77.4581 359° North 207 238 16,000 600 Climbing Washington Center
05:57PM 39.5658 -77.4569 North 219 252 16,000 420 Level Washington Center
05:58PM 39.6303 -77.4508 North 260 299 16,800 1,320 Climbing New York Center
05:59PM 39.6886 -77.4536 358° North 245 282 18,200 1,080 Climbing New York Center
06:00PM 39.7533 -77.4492 North 231 266 19,000 360 Climbing New York Center
06:01PM 39.8264 -77.4156 19° North 243 280 19,000  Level New York Center
06:02PM 39.9033 -77.3794 20° North 278 320 19,000  Level New York Center
06:03PM 39.9831 -77.3356 23° Northeast 305 351 19,000  Level New York Center
06:04PM 40.0625 -77.2942 22° Northeast 305 351 19,000  Level New York Center
06:05PM 40.1442 -77.2503 22° Northeast 305 351 19,000  Level New York Center
06:06PM 40.2214 -77.2083 23° Northeast 305 351 19,000  Level New York Center
06:07PM 40.2942 -77.1717 21° North 305 351 19,000  Level New York Center
06:08PM 40.3825 -77.1225 23° Northeast 305 351 19,000  Level New York Center
06:09PM 40.4533 -77.0828 23° Northeast 305 351 19,000 -360 Level New York Center
06:10PM 40.5456 -77.0367 21° North 305 351 18,300 -660 Descending New York Center
06:11PM 40.6164 -76.9964 23° Northeast 305 351 17,800 -600 Descending New York Center
06:12PM 40.7064 -76.9472 22° Northeast 305 351 17,100 -780 Descending New York Center
06:13PM 40.7772 -76.9097 22° Northeast 305 351 16,300 -840 Descending New York Center
06:14PM 40.8608 -76.8650 22° Northeast 305 351 15,500 -660 Descending New York Center
06:15PM 40.9294 -76.8272 23° Northeast 300 345 15,000 -300 Descending New York Center
06:16PM 41.0089 -76.7822 23° Northeast 287 330 15,000  Level New York Center
06:17PM 41.0794 -76.7442 22° Northeast 280 322 15,000  Level New York Center
06:18PM 41.1481 -76.7061 23° Northeast 275 316 15,000  Level New York Center
06:19PM 41.2189 -76.6628 25° Northeast 275 316 15,100  Climbing New York Center
06:20PM 41.2897 -76.6247 22° Northeast 275 316 15,100 -120 Level New York Center
06:21PM 41.3558 -76.5892 22° Northeast 275 316 14,900 -540 Descending New York Center
06:22PM 41.4308 -76.5458 23° Northeast 285 328 14,000 -1,020 Descending New York Center
06:23PM 41.5186 -76.5006 21° North 292 336 13,000 -960 Descending New York Center
06:24PM 41.5914 -76.4569 24° Northeast 297 342 12,100 -900 Descending New York Center
06:25PM 41.6622 -76.4158 23° Northeast 286 329 11,300 -900 Descending New York Center
06:26PM 41.7261 -76.3822 21° North 277 319 10,400 -1,140 Descending New York Center
06:27PM 41.8033 -76.3386 23° Northeast 271 312 9,100 -1,140 Descending New York Center
06:28PM 41.8697 -76.2997 24° Northeast 266 306 8,200 -960 Descending New York Center
06:29PM 41.9261 -76.2458 35° Northeast 254 292 7,200 -1,020 Descending New York Center
06:30PM 41.9742 -76.1994 36° Northeast 232 267 6,200 -960 Descending New York Center
06:31PM 42.0203 -76.1447 41° Northeast 221 254 5,300 -960 Descending New York Center
06:32PM 42.0644 -76.0925 41° Northeast 215 247 4,300 -1,020 Descending New York Center
06:33PM 42.1083 -76.0400 42° Northeast 209 241 3,400 -540 Descending New York Center
06:34PM 42.1433 -76.0008 40° Northeast 185 213 3,300 -480 Descending New York Center
06:35PM 42.1714 -75.9781 31° Northeast 150 173 2,500 -600 Descending New York Center
06:36PM 42.2083 -75.9444 34° Northeast 137 158 2,100 6,240 Descending New York Center
06:37PM 42.2406 -75.9192 30° Northeast 137 158 15,000 6,300 Climbing New York Center
06:38PM 42.2731 -75.8936 30° Northeast 137 158 15,000  Level New York Center
06:40PM 42.2000 -75.9667 223° Southwest  Level FlightAware Approximate
06:47PM 42.2084 -75.9796 223° Southwest  Level Estimated
06:48PM 42.2084 -75.9796 223° Southwest  Level Estimated
06:49PM 42.2084 -75.9796 223° Southwest  Level Estimated
06:50PM 42.2084 -75.9796 223° Southwest  Level Estimated
06:51PM 42.2084 -75.9796 223° Southwest  Level Estimated
06:52PM 42.2084 -75.9796 223° Southwest  Level Estimated
06:53PM 42.2084 -75.9796 223° Southwest  Level Estimated
06:54PM 42.2084 -75.9796 223° Southwest  Level Estimated
06:55PM 42.2084 -75.9796 223° Southwest  Level Estimated
06:56PM 42.2084 -75.9796 223° Southwest  Level Estimated